sensor_id;sensor_type;location;lat;lon;timestamp;P1;durP1;ratioP1;P2;durP2;ratioP2
59115;SDS011;53564;51.930;4.640;2022-10-18T00:00:36;18.10;;;7.78;;
59115;SDS011;53564;51.930;4.640;2022-10-18T00:03:02;14.55;;;6.80;;
59115;SDS011;53564;51.930;4.640;2022-10-18T00:05:27;15.57;;;7.30;;
59115;SDS011;53564;51.930;4.640;2022-10-18T00:07:52;16.10;;;7.70;;
59115;SDS011;53564;51.930;4.640;2022-10-18T00:10:18;14.10;;;5.75;;
59115;SDS011;53564;51.930;4.640;2022-10-18T00:12:43;13.07;;;5.10;;
59115;SDS011;53564;51.930;4.640;2022-10-18T00:15:09;12.82;;;4.95;;
59115;SDS011;53564;51.930;4.640;2022-10-18T00:17:35;12.52;;;5.13;;
59115;SDS011;53564;51.930;4.640;2022-10-18T00:20:01;13.95;;;5.68;;
59115;SDS011;53564;51.930;4.640;2022-10-18T00:22:26;13.95;;;5.95;;
59115;SDS011;53564;51.930;4.640;2022-10-18T00:24:51;12.27;;;5.13;;
59115;SDS011;53564;51.930;4.640;2022-10-18T00:27:16;13.25;;;5.63;;
59115;SDS011;53564;51.930;4.640;2022-10-18T00:29:42;15.60;;;6.13;;
59115;SDS011;53564;51.930;4.640;2022-10-18T00:32:07;15.38;;;6.20;;
59115;SDS011;53564;51.930;4.640;2022-10-18T00:34:32;11.68;;;4.85;;
59115;SDS011;53564;51.930;4.640;2022-10-18T00:36:58;11.50;;;4.30;;
59115;SDS011;53564;51.930;4.640;2022-10-18T00:39:23;11.88;;;4.72;;
59115;SDS011;53564;51.930;4.640;2022-10-18T00:41:48;11.43;;;4.45;;
59115;SDS011;53564;51.930;4.640;2022-10-18T00:46:40;12.50;;;4.63;;
59115;SDS011;53564;51.930;4.640;2022-10-18T00:51:49;11.30;;;4.43;;
59115;SDS011;53564;51.930;4.640;2022-10-18T00:54:32;12.13;;;4.30;;
59115;SDS011;53564;51.930;4.640;2022-10-18T00:57:00;12.25;;;4.20;;
59115;SDS011;53564;51.930;4.640;2022-10-18T00:59:26;11.82;;;4.32;;
59115;SDS011;53564;51.930;4.640;2022-10-18T01:01:52;13.32;;;4.10;;
59115;SDS011;53564;51.930;4.640;2022-10-18T01:04:18;11.63;;;4.60;;
59115;SDS011;53564;51.930;4.640;2022-10-18T01:09:39;10.65;;;3.88;;
59115;SDS011;53564;51.930;4.640;2022-10-18T01:12:20;11.18;;;3.95;;
59115;SDS011;53564;51.930;4.640;2022-10-18T01:14:57;11.30;;;3.83;;
59115;SDS011;53564;51.930;4.640;2022-10-18T01:17:37;11.27;;;3.63;;
59115;SDS011;53564;51.930;4.640;2022-10-18T01:23:07;11.68;;;4.03;;
59115;SDS011;53564;51.930;4.640;2022-10-18T01:31:46;12.35;;;3.80;;
59115;SDS011;53564;51.930;4.640;2022-10-18T01:34:15;9.85;;;3.60;;
59115;SDS011;53564;51.930;4.640;2022-10-18T01:36:43;10.20;;;3.60;;
59115;SDS011;53564;51.930;4.640;2022-10-18T01:39:14;12.55;;;3.92;;
59115;SDS011;53564;51.930;4.640;2022-10-18T01:41:42;10.52;;;3.65;;
59115;SDS011;53564;51.930;4.640;2022-10-18T01:44:11;10.63;;;3.63;;
59115;SDS011;53564;51.930;4.640;2022-10-18T01:46:41;9.73;;;3.47;;
59115;SDS011;53564;51.930;4.640;2022-10-18T01:49:08;10.73;;;3.75;;
59115;SDS011;53564;51.930;4.640;2022-10-18T01:51:34;10.10;;;3.55;;
59115;SDS011;53564;51.930;4.640;2022-10-18T01:53:59;9.98;;;3.42;;
59115;SDS011;53564;51.930;4.640;2022-10-18T01:59:23;13.45;;;3.55;;
59115;SDS011;53564;51.930;4.640;2022-10-18T02:02:05;9.85;;;3.58;;
59115;SDS011;53564;51.930;4.640;2022-10-18T02:04:53;16.77;;;3.97;;
59115;SDS011;53564;51.930;4.640;2022-10-18T02:10:10;10.90;;;4.22;;
59115;SDS011;53564;51.930;4.640;2022-10-18T02:12:38;9.80;;;3.30;;
59115;SDS011;53564;51.930;4.640;2022-10-18T02:15:07;11.30;;;3.88;;
59115;SDS011;53564;51.930;4.640;2022-10-18T02:17:35;9.18;;;3.13;;
59115;SDS011;53564;51.930;4.640;2022-10-18T02:20:03;9.27;;;3.22;;
59115;SDS011;53564;51.930;4.640;2022-10-18T02:22:30;11.65;;;4.47;;
59115;SDS011;53564;51.930;4.640;2022-10-18T02:24:57;9.85;;;3.33;;
59115;SDS011;53564;51.930;4.640;2022-10-18T02:27:26;11.07;;;3.67;;
59115;SDS011;53564;51.930;4.640;2022-10-18T02:29:52;9.43;;;3.20;;
59115;SDS011;53564;51.930;4.640;2022-10-18T02:34:54;9.52;;;3.45;;
59115;SDS011;53564;51.930;4.640;2022-10-18T02:37:23;9.70;;;3.42;;
59115;SDS011;53564;51.930;4.640;2022-10-18T02:39:54;9.90;;;3.30;;
59115;SDS011;53564;51.930;4.640;2022-10-18T02:42:20;10.18;;;3.70;;
59115;SDS011;53564;51.930;4.640;2022-10-18T02:44:46;10.25;;;3.33;;
59115;SDS011;53564;51.930;4.640;2022-10-18T02:47:11;11.48;;;3.80;;
59115;SDS011;53564;51.930;4.640;2022-10-18T02:49:37;13.57;;;4.78;;
59115;SDS011;53564;51.930;4.640;2022-10-18T02:52:03;9.63;;;3.30;;
59115;SDS011;53564;51.930;4.640;2022-10-18T02:54:28;10.60;;;3.45;;
59115;SDS011;53564;51.930;4.640;2022-10-18T02:56:53;9.15;;;3.38;;
59115;SDS011;53564;51.930;4.640;2022-10-18T02:59:19;11.45;;;3.47;;
59115;SDS011;53564;51.930;4.640;2022-10-18T03:01:44;9.95;;;3.30;;
59115;SDS011;53564;51.930;4.640;2022-10-18T03:04:09;9.35;;;3.75;;
59115;SDS011;53564;51.930;4.640;2022-10-18T03:06:35;10.57;;;3.55;;
59115;SDS011;53564;51.930;4.640;2022-10-18T03:09:00;11.55;;;3.40;;
59115;SDS011;53564;51.930;4.640;2022-10-18T03:11:26;10.23;;;3.58;;
59115;SDS011;53564;51.930;4.640;2022-10-18T03:13:52;10.73;;;3.58;;
59115;SDS011;53564;51.930;4.640;2022-10-18T03:16:18;10.45;;;3.60;;
59115;SDS011;53564;51.930;4.640;2022-10-18T03:18:43;9.75;;;3.13;;
59115;SDS011;53564;51.930;4.640;2022-10-18T03:21:08;10.23;;;3.80;;
59115;SDS011;53564;51.930;4.640;2022-10-18T03:23:34;10.18;;;3.60;;
59115;SDS011;53564;51.930;4.640;2022-10-18T03:25:59;11.07;;;3.40;;
59115;SDS011;53564;51.930;4.640;2022-10-18T03:28:25;9.82;;;3.40;;
59115;SDS011;53564;51.930;4.640;2022-10-18T03:30:50;9.15;;;3.25;;
59115;SDS011;53564;51.930;4.640;2022-10-18T03:33:16;11.60;;;3.25;;
59115;SDS011;53564;51.930;4.640;2022-10-18T03:35:41;11.20;;;3.45;;
59115;SDS011;53564;51.930;4.640;2022-10-18T03:38:06;10.00;;;3.25;;
59115;SDS011;53564;51.930;4.640;2022-10-18T03:40:32;16.00;;;3.95;;
59115;SDS011;53564;51.930;4.640;2022-10-18T03:42:57;9.23;;;3.10;;
59115;SDS011;53564;51.930;4.640;2022-10-18T03:45:22;10.77;;;3.47;;
59115;SDS011;53564;51.930;4.640;2022-10-18T03:47:47;11.25;;;3.28;;
59115;SDS011;53564;51.930;4.640;2022-10-18T03:50:13;14.00;;;3.90;;
59115;SDS011;53564;51.930;4.640;2022-10-18T03:52:38;10.00;;;3.28;;
59115;SDS011;53564;51.930;4.640;2022-10-18T03:55:04;10.40;;;3.40;;
59115;SDS011;53564;51.930;4.640;2022-10-18T03:57:29;9.02;;;3.45;;
59115;SDS011;53564;51.930;4.640;2022-10-18T03:59:54;9.50;;;3.13;;
59115;SDS011;53564;51.930;4.640;2022-10-18T04:02:20;13.20;;;3.58;;
59115;SDS011;53564;51.930;4.640;2022-10-18T04:04:45;8.63;;;3.15;;
59115;SDS011;53564;51.930;4.640;2022-10-18T04:07:10;7.45;;;2.75;;
59115;SDS011;53564;51.930;4.640;2022-10-18T04:09:36;10.07;;;3.22;;
59115;SDS011;53564;51.930;4.640;2022-10-18T04:12:01;7.57;;;3.00;;
59115;SDS011;53564;51.930;4.640;2022-10-18T04:14:26;13.18;;;3.60;;
59115;SDS011;53564;51.930;4.640;2022-10-18T04:16:51;10.35;;;3.20;;
59115;SDS011;53564;51.930;4.640;2022-10-18T04:19:17;8.27;;;3.10;;
59115;SDS011;53564;51.930;4.640;2022-10-18T04:21:42;8.27;;;3.10;;
59115;SDS011;53564;51.930;4.640;2022-10-18T04:24:07;9.00;;;3.50;;
59115;SDS011;53564;51.930;4.640;2022-10-18T04:26:33;11.73;;;3.70;;
59115;SDS011;53564;51.930;4.640;2022-10-18T04:28:58;8.48;;;2.83;;
59115;SDS011;53564;51.930;4.640;2022-10-18T04:31:23;9.15;;;3.10;;
59115;SDS011;53564;51.930;4.640;2022-10-18T04:33:48;9.50;;;3.20;;
59115;SDS011;53564;51.930;4.640;2022-10-18T04:36:14;10.75;;;3.42;;
59115;SDS011;53564;51.930;4.640;2022-10-18T04:38:42;9.80;;;3.47;;
59115;SDS011;53564;51.930;4.640;2022-10-18T04:41:07;8.32;;;2.80;;
59115;SDS011;53564;51.930;4.640;2022-10-18T04:43:32;10.48;;;3.28;;
59115;SDS011;53564;51.930;4.640;2022-10-18T04:45:58;10.60;;;3.42;;
59115;SDS011;53564;51.930;4.640;2022-10-18T04:48:23;10.07;;;3.30;;
59115;SDS011;53564;51.930;4.640;2022-10-18T04:50:49;9.02;;;3.03;;
59115;SDS011;53564;51.930;4.640;2022-10-18T04:53:15;9.27;;;3.17;;
59115;SDS011;53564;51.930;4.640;2022-10-18T04:55:42;7.30;;;2.95;;
59115;SDS011;53564;51.930;4.640;2022-10-18T04:58:09;10.57;;;3.20;;
59115;SDS011;53564;51.930;4.640;2022-10-18T05:00:34;8.60;;;2.90;;
59115;SDS011;53564;51.930;4.640;2022-10-18T05:03:01;8.57;;;3.05;;
59115;SDS011;53564;51.930;4.640;2022-10-18T05:05:26;8.90;;;3.17;;
59115;SDS011;53564;51.930;4.640;2022-10-18T05:07:52;10.60;;;3.58;;
59115;SDS011;53564;51.930;4.640;2022-10-18T05:10:17;9.30;;;3.40;;
59115;SDS011;53564;51.930;4.640;2022-10-18T05:12:42;8.73;;;3.15;;
59115;SDS011;53564;51.930;4.640;2022-10-18T05:15:08;9.73;;;3.55;;
59115;SDS011;53564;51.930;4.640;2022-10-18T05:17:33;11.27;;;3.10;;
59115;SDS011;53564;51.930;4.640;2022-10-18T05:19:59;10.63;;;3.42;;
59115;SDS011;53564;51.930;4.640;2022-10-18T05:22:24;8.45;;;2.90;;
59115;SDS011;53564;51.930;4.640;2022-10-18T05:24:49;10.88;;;3.83;;
59115;SDS011;53564;51.930;4.640;2022-10-18T05:27:14;8.95;;;3.28;;
59115;SDS011;53564;51.930;4.640;2022-10-18T05:29:40;9.48;;;3.47;;
59115;SDS011;53564;51.930;4.640;2022-10-18T05:32:05;9.10;;;3.05;;
59115;SDS011;53564;51.930;4.640;2022-10-18T05:34:30;10.98;;;3.40;;
59115;SDS011;53564;51.930;4.640;2022-10-18T05:36:56;9.60;;;3.13;;
59115;SDS011;53564;51.930;4.640;2022-10-18T05:39:22;23.10;;;4.65;;
59115;SDS011;53564;51.930;4.640;2022-10-18T05:41:47;10.18;;;3.60;;
59115;SDS011;53564;51.930;4.640;2022-10-18T05:44:13;11.15;;;3.60;;
59115;SDS011;53564;51.930;4.640;2022-10-18T05:46:38;10.48;;;3.70;;
59115;SDS011;53564;51.930;4.640;2022-10-18T05:49:03;10.77;;;3.35;;
59115;SDS011;53564;51.930;4.640;2022-10-18T05:51:29;12.07;;;3.63;;
59115;SDS011;53564;51.930;4.640;2022-10-18T05:53:54;9.55;;;3.45;;
59115;SDS011;53564;51.930;4.640;2022-10-18T05:56:19;15.55;;;4.70;;
59115;SDS011;53564;51.930;4.640;2022-10-18T05:58:48;12.68;;;5.00;;
59115;SDS011;53564;51.930;4.640;2022-10-18T06:01:14;11.13;;;3.67;;
59115;SDS011;53564;51.930;4.640;2022-10-18T06:03:39;10.93;;;3.70;;
59115;SDS011;53564;51.930;4.640;2022-10-18T06:06:08;12.48;;;3.75;;
59115;SDS011;53564;51.930;4.640;2022-10-18T06:08:35;9.88;;;3.47;;
59115;SDS011;53564;51.930;4.640;2022-10-18T06:11:08;11.85;;;4.88;;
59115;SDS011;53564;51.930;4.640;2022-10-18T06:13:38;11.55;;;4.25;;
59115;SDS011;53564;51.930;4.640;2022-10-18T06:16:11;10.88;;;3.40;;
59115;SDS011;53564;51.930;4.640;2022-10-18T06:18:37;10.38;;;3.65;;
59115;SDS011;53564;51.930;4.640;2022-10-18T06:21:03;10.63;;;3.70;;
59115;SDS011;53564;51.930;4.640;2022-10-18T06:23:29;10.48;;;3.75;;
59115;SDS011;53564;51.930;4.640;2022-10-18T06:25:58;13.15;;;5.03;;
59115;SDS011;53564;51.930;4.640;2022-10-18T06:28:25;11.95;;;4.68;;
59115;SDS011;53564;51.930;4.640;2022-10-18T06:30:50;10.70;;;3.60;;
59115;SDS011;53564;51.930;4.640;2022-10-18T06:33:15;11.40;;;3.58;;
59115;SDS011;53564;51.930;4.640;2022-10-18T06:35:41;12.10;;;4.55;;
59115;SDS011;53564;51.930;4.640;2022-10-18T06:38:06;12.32;;;4.38;;
59115;SDS011;53564;51.930;4.640;2022-10-18T06:40:31;13.05;;;5.28;;
59115;SDS011;53564;51.930;4.640;2022-10-18T06:43:02;10.55;;;3.63;;
59115;SDS011;53564;51.930;4.640;2022-10-18T06:45:30;13.32;;;3.80;;
59115;SDS011;53564;51.930;4.640;2022-10-18T06:47:56;11.93;;;4.60;;
59115;SDS011;53564;51.930;4.640;2022-10-18T06:50:24;10.48;;;3.80;;
59115;SDS011;53564;51.930;4.640;2022-10-18T06:52:52;9.75;;;3.25;;
59115;SDS011;53564;51.930;4.640;2022-10-18T06:55:17;10.73;;;3.45;;
59115;SDS011;53564;51.930;4.640;2022-10-18T06:57:43;11.30;;;3.28;;
59115;SDS011;53564;51.930;4.640;2022-10-18T07:00:08;9.73;;;3.20;;
59115;SDS011;53564;51.930;4.640;2022-10-18T07:02:34;9.80;;;3.10;;
59115;SDS011;53564;51.930;4.640;2022-10-18T07:04:59;10.00;;;3.25;;
59115;SDS011;53564;51.930;4.640;2022-10-18T07:07:24;16.48;;;3.78;;
59115;SDS011;53564;51.930;4.640;2022-10-18T07:09:49;9.25;;;2.88;;
59115;SDS011;53564;51.930;4.640;2022-10-18T07:12:15;12.48;;;3.60;;
59115;SDS011;53564;51.930;4.640;2022-10-18T07:14:41;10.90;;;3.22;;
59115;SDS011;53564;51.930;4.640;2022-10-18T07:17:07;11.02;;;3.33;;
59115;SDS011;53564;51.930;4.640;2022-10-18T07:19:32;12.63;;;3.25;;
59115;SDS011;53564;51.930;4.640;2022-10-18T07:21:57;10.95;;;3.20;;
59115;SDS011;53564;51.930;4.640;2022-10-18T07:24:23;13.80;;;3.88;;
59115;SDS011;53564;51.930;4.640;2022-10-18T07:26:48;9.05;;;3.20;;
59115;SDS011;53564;51.930;4.640;2022-10-18T07:29:13;9.85;;;3.10;;
59115;SDS011;53564;51.930;4.640;2022-10-18T07:31:39;10.18;;;3.38;;
59115;SDS011;53564;51.930;4.640;2022-10-18T07:34:04;13.48;;;4.40;;
59115;SDS011;53564;51.930;4.640;2022-10-18T07:36:35;13.25;;;3.38;;
59115;SDS011;53564;51.930;4.640;2022-10-18T07:39:01;12.07;;;3.15;;
59115;SDS011;53564;51.930;4.640;2022-10-18T07:41:26;10.05;;;3.47;;
59115;SDS011;53564;51.930;4.640;2022-10-18T07:43:52;12.60;;;3.20;;
59115;SDS011;53564;51.930;4.640;2022-10-18T07:46:18;12.55;;;3.63;;
59115;SDS011;53564;51.930;4.640;2022-10-18T07:48:45;15.25;;;5.47;;
59115;SDS011;53564;51.930;4.640;2022-10-18T07:51:10;13.73;;;3.72;;
59115;SDS011;53564;51.930;4.640;2022-10-18T07:53:36;13.55;;;4.65;;
59115;SDS011;53564;51.930;4.640;2022-10-18T07:56:03;10.93;;;3.45;;
59115;SDS011;53564;51.930;4.640;2022-10-18T07:58:31;12.55;;;4.72;;
59115;SDS011;53564;51.930;4.640;2022-10-18T08:01:00;13.77;;;4.10;;
59115;SDS011;53564;51.930;4.640;2022-10-18T08:03:26;17.85;;;5.47;;
59115;SDS011;53564;51.930;4.640;2022-10-18T08:05:52;17.58;;;5.82;;
59115;SDS011;53564;51.930;4.640;2022-10-18T08:08:18;19.60;;;5.90;;
59115;SDS011;53564;51.930;4.640;2022-10-18T08:10:44;15.63;;;5.28;;
59115;SDS011;53564;51.930;4.640;2022-10-18T08:13:09;15.15;;;5.78;;
59115;SDS011;53564;51.930;4.640;2022-10-18T08:15:34;14.23;;;4.60;;
59115;SDS011;53564;51.930;4.640;2022-10-18T08:18:00;18.58;;;5.20;;
59115;SDS011;53564;51.930;4.640;2022-10-18T08:20:25;17.15;;;4.82;;
59115;SDS011;53564;51.930;4.640;2022-10-18T08:22:50;17.42;;;6.00;;
59115;SDS011;53564;51.930;4.640;2022-10-18T08:25:16;17.08;;;5.82;;
59115;SDS011;53564;51.930;4.640;2022-10-18T08:27:41;19.77;;;5.60;;
59115;SDS011;53564;51.930;4.640;2022-10-18T08:30:07;19.13;;;5.40;;
59115;SDS011;53564;51.930;4.640;2022-10-18T08:32:33;19.73;;;5.78;;
59115;SDS011;53564;51.930;4.640;2022-10-18T08:34:59;18.83;;;6.20;;
59115;SDS011;53564;51.930;4.640;2022-10-18T08:37:24;20.70;;;5.28;;
59115;SDS011;53564;51.930;4.640;2022-10-18T08:39:50;14.68;;;4.72;;
59115;SDS011;53564;51.930;4.640;2022-10-18T08:42:29;13.75;;;4.35;;
59115;SDS011;53564;51.930;4.640;2022-10-18T08:45:18;15.00;;;4.88;;
59115;SDS011;53564;51.930;4.640;2022-10-18T08:47:44;19.67;;;5.43;;
59115;SDS011;53564;51.930;4.640;2022-10-18T08:50:35;22.40;;;5.35;;
59115;SDS011;53564;51.930;4.640;2022-10-18T08:56:02;17.95;;;4.88;;
59115;SDS011;53564;51.930;4.640;2022-10-18T08:58:35;13.30;;;3.90;;
59115;SDS011;53564;51.930;4.640;2022-10-18T09:03:53;15.70;;;4.10;;
59115;SDS011;53564;51.930;4.640;2022-10-18T09:06:22;20.27;;;4.75;;
59115;SDS011;53564;51.930;4.640;2022-10-18T09:17:12;11.90;;;2.63;;
59115;SDS011;53564;51.930;4.640;2022-10-18T09:22:49;9.10;;;2.40;;
59115;SDS011;53564;51.930;4.640;2022-10-18T09:27:52;8.57;;;2.10;;
59115;SDS011;53564;51.930;4.640;2022-10-18T09:36:00;9.63;;;2.22;;
59115;SDS011;53564;51.930;4.640;2022-10-18T09:38:28;12.52;;;2.22;;
59115;SDS011;53564;51.930;4.640;2022-10-18T09:40:59;9.85;;;2.55;;
59115;SDS011;53564;51.930;4.640;2022-10-18T09:43:40;13.30;;;2.50;;
59115;SDS011;53564;51.930;4.640;2022-10-18T09:46:07;9.60;;;2.20;;
59115;SDS011;53564;51.930;4.640;2022-10-18T09:48:44;17.25;;;4.03;;
59115;SDS011;53564;51.930;4.640;2022-10-18T09:51:14;12.15;;;3.17;;
59115;SDS011;53564;51.930;4.640;2022-10-18T09:57:12;5.72;;;1.88;;
59115;SDS011;53564;51.930;4.640;2022-10-18T09:59:42;11.23;;;1.88;;
59115;SDS011;53564;51.930;4.640;2022-10-18T10:02:14;10.98;;;2.22;;
59115;SDS011;53564;51.930;4.640;2022-10-18T10:04:41;10.80;;;2.17;;
59115;SDS011;53564;51.930;4.640;2022-10-18T10:07:07;10.40;;;2.30;;
59115;SDS011;53564;51.930;4.640;2022-10-18T10:09:39;11.15;;;2.35;;
59115;SDS011;53564;51.930;4.640;2022-10-18T10:12:31;13.00;;;2.13;;
59115;SDS011;53564;51.930;4.640;2022-10-18T10:15:38;12.85;;;3.10;;
59115;SDS011;53564;51.930;4.640;2022-10-18T10:18:21;15.73;;;5.32;;
59115;SDS011;53564;51.930;4.640;2022-10-18T10:20:45;8.27;;;2.30;;
59115;SDS011;53564;51.930;4.640;2022-10-18T10:23:18;10.85;;;2.50;;
59115;SDS011;53564;51.930;4.640;2022-10-18T10:25:50;10.35;;;2.10;;
59115;SDS011;53564;51.930;4.640;2022-10-18T10:28:18;9.85;;;2.40;;
59115;SDS011;53564;51.930;4.640;2022-10-18T10:30:47;10.25;;;1.90;;
59115;SDS011;53564;51.930;4.640;2022-10-18T10:33:35;10.00;;;2.20;;
59115;SDS011;53564;51.930;4.640;2022-10-18T10:36:03;10.05;;;2.00;;
59115;SDS011;53564;51.930;4.640;2022-10-18T10:38:39;10.32;;;2.17;;
59115;SDS011;53564;51.930;4.640;2022-10-18T10:41:13;14.43;;;2.80;;
59115;SDS011;53564;51.930;4.640;2022-10-18T10:43:44;8.00;;;2.60;;
59115;SDS011;53564;51.930;4.640;2022-10-18T10:48:46;8.10;;;1.75;;
59115;SDS011;53564;51.930;4.640;2022-10-18T10:51:16;10.35;;;2.50;;
59115;SDS011;53564;51.930;4.640;2022-10-18T10:53:56;16.52;;;2.55;;
59115;SDS011;53564;51.930;4.640;2022-10-18T10:58:52;9.35;;;2.08;;
59115;SDS011;53564;51.930;4.640;2022-10-18T11:01:29;8.35;;;1.92;;
59115;SDS011;53564;51.930;4.640;2022-10-18T11:03:57;11.68;;;2.30;;
59115;SDS011;53564;51.930;4.640;2022-10-18T11:06:36;13.30;;;2.05;;
59115;SDS011;53564;51.930;4.640;2022-10-18T11:09:23;12.00;;;2.45;;
59115;SDS011;53564;51.930;4.640;2022-10-18T11:11:55;7.90;;;1.90;;
59115;SDS011;53564;51.930;4.640;2022-10-18T11:14:28;10.33;;;2.43;;
59115;SDS011;53564;51.930;4.640;2022-10-18T11:17:05;10.75;;;1.95;;
59115;SDS011;53564;51.930;4.640;2022-10-18T11:19:41;8.15;;;2.55;;
59115;SDS011;53564;51.930;4.640;2022-10-18T11:22:19;6.97;;;1.95;;
59115;SDS011;53564;51.930;4.640;2022-10-18T11:24:49;11.15;;;2.25;;
59115;SDS011;53564;51.930;4.640;2022-10-18T11:27:18;10.50;;;1.83;;
59115;SDS011;53564;51.930;4.640;2022-10-18T11:33:11;11.15;;;1.77;;
59115;SDS011;53564;51.930;4.640;2022-10-18T11:36:00;12.13;;;2.40;;
59115;SDS011;53564;51.930;4.640;2022-10-18T11:41:13;10.77;;;1.90;;
59115;SDS011;53564;51.930;4.640;2022-10-18T11:51:44;9.85;;;1.90;;
59115;SDS011;53564;51.930;4.640;2022-10-18T11:57:24;8.75;;;1.98;;
59115;SDS011;53564;51.930;4.640;2022-10-18T12:02:48;11.43;;;1.95;;
59115;SDS011;53564;51.930;4.640;2022-10-18T12:05:24;9.68;;;2.17;;
59115;SDS011;53564;51.930;4.640;2022-10-18T12:07:55;5.28;;;1.35;;
59115;SDS011;53564;51.930;4.640;2022-10-18T12:10:26;9.15;;;2.38;;
59115;SDS011;53564;51.930;4.640;2022-10-18T12:12:55;10.70;;;2.00;;
59115;SDS011;53564;51.930;4.640;2022-10-18T12:15:26;8.68;;;2.55;;
59115;SDS011;53564;51.930;4.640;2022-10-18T12:17:53;7.32;;;1.92;;
59115;SDS011;53564;51.930;4.640;2022-10-18T12:20:29;10.07;;;1.83;;
59115;SDS011;53564;51.930;4.640;2022-10-18T12:23:14;6.05;;;2.38;;
59115;SDS011;53564;51.930;4.640;2022-10-18T12:25:44;6.20;;;1.70;;
59115;SDS011;53564;51.930;4.640;2022-10-18T12:28:27;4.00;;;1.50;;
59115;SDS011;53564;51.930;4.640;2022-10-18T12:31:47;9.02;;;1.70;;
59115;SDS011;53564;51.930;4.640;2022-10-18T12:34:05;8.55;;;1.90;;
59115;SDS011;53564;51.930;4.640;2022-10-18T12:36:54;10.23;;;1.88;;
59115;SDS011;53564;51.930;4.640;2022-10-18T12:39:28;9.80;;;2.00;;
59115;SDS011;53564;51.930;4.640;2022-10-18T12:41:58;11.40;;;2.50;;
59115;SDS011;53564;51.930;4.640;2022-10-18T12:44:26;10.85;;;2.22;;
59115;SDS011;53564;51.930;4.640;2022-10-18T12:46:55;9.07;;;2.40;;
59115;SDS011;53564;51.930;4.640;2022-10-18T12:52:02;10.13;;;1.67;;
59115;SDS011;53564;51.930;4.640;2022-10-18T12:54:37;7.43;;;2.00;;
59115;SDS011;53564;51.930;4.640;2022-10-18T12:57:04;7.80;;;1.90;;
59115;SDS011;53564;51.930;4.640;2022-10-18T12:59:41;7.82;;;1.80;;
59115;SDS011;53564;51.930;4.640;2022-10-18T13:02:08;7.22;;;2.15;;
59115;SDS011;53564;51.930;4.640;2022-10-18T13:04:44;4.10;;;1.25;;
59115;SDS011;53564;51.930;4.640;2022-10-18T13:07:11;6.35;;;1.42;;
59115;SDS011;53564;51.930;4.640;2022-10-18T13:15:45;10.43;;;2.10;;
59115;SDS011;53564;51.930;4.640;2022-10-18T13:18:22;7.93;;;2.00;;
59115;SDS011;53564;51.930;4.640;2022-10-18T13:21:22;6.97;;;1.88;;
59115;SDS011;53564;51.930;4.640;2022-10-18T13:27:02;6.75;;;1.25;;
59115;SDS011;53564;51.930;4.640;2022-10-18T13:32:25;7.05;;;2.08;;
59115;SDS011;53564;51.930;4.640;2022-10-18T13:34:59;8.05;;;2.00;;
59115;SDS011;53564;51.930;4.640;2022-10-18T13:37:24;6.07;;;1.25;;
59115;SDS011;53564;51.930;4.640;2022-10-18T13:39:52;9.05;;;1.70;;
59115;SDS011;53564;51.930;4.640;2022-10-18T13:42:54;10.52;;;1.88;;
59115;SDS011;53564;51.930;4.640;2022-10-18T13:50:53;5.43;;;1.30;;
59115;SDS011;53564;51.930;4.640;2022-10-18T13:56:28;8.63;;;1.52;;
59115;SDS011;53564;51.930;4.640;2022-10-18T13:59:14;7.82;;;1.73;;
59115;SDS011;53564;51.930;4.640;2022-10-18T14:02:00;5.85;;;1.65;;
59115;SDS011;53564;51.930;4.640;2022-10-18T14:07:23;10.23;;;1.67;;
59115;SDS011;53564;51.930;4.640;2022-10-18T14:09:51;7.93;;;1.75;;
59115;SDS011;53564;51.930;4.640;2022-10-18T14:14:57;9.05;;;1.65;;
59115;SDS011;53564;51.930;4.640;2022-10-18T14:17:35;8.43;;;1.60;;
59115;SDS011;53564;51.930;4.640;2022-10-18T14:22:53;8.30;;;2.63;;
59115;SDS011;53564;51.930;4.640;2022-10-18T14:25:30;8.77;;;1.50;;
59115;SDS011;53564;51.930;4.640;2022-10-18T14:30:51;7.75;;;1.70;;
59115;SDS011;53564;51.930;4.640;2022-10-18T14:38:50;6.13;;;1.40;;
59115;SDS011;53564;51.930;4.640;2022-10-18T14:43:44;7.37;;;1.83;;
59115;SDS011;53564;51.930;4.640;2022-10-18T14:46:20;9.05;;;1.98;;
59115;SDS011;53564;51.930;4.640;2022-10-18T14:48:55;4.40;;;1.38;;
59115;SDS011;53564;51.930;4.640;2022-10-18T14:51:22;4.82;;;1.50;;
59115;SDS011;53564;51.930;4.640;2022-10-18T14:53:48;6.40;;;1.60;;
59115;SDS011;53564;51.930;4.640;2022-10-18T14:56:19;10.45;;;1.83;;
59115;SDS011;53564;51.930;4.640;2022-10-18T14:58:48;8.50;;;1.63;;
59115;SDS011;53564;51.930;4.640;2022-10-18T15:01:17;6.75;;;1.52;;
59115;SDS011;53564;51.930;4.640;2022-10-18T15:03:44;7.68;;;2.53;;
59115;SDS011;53564;51.930;4.640;2022-10-18T15:06:11;11.50;;;2.17;;
59115;SDS011;53564;51.930;4.640;2022-10-18T15:08:41;11.23;;;1.90;;
59115;SDS011;53564;51.930;4.640;2022-10-18T15:11:08;12.25;;;2.10;;
59115;SDS011;53564;51.930;4.640;2022-10-18T15:13:40;12.10;;;2.00;;
59115;SDS011;53564;51.930;4.640;2022-10-18T15:16:15;10.75;;;2.00;;
59115;SDS011;53564;51.930;4.640;2022-10-18T15:18:42;11.07;;;2.25;;
59115;SDS011;53564;51.930;4.640;2022-10-18T15:21:29;6.63;;;1.60;;
59115;SDS011;53564;51.930;4.640;2022-10-18T15:23:54;9.30;;;2.00;;
59115;SDS011;53564;51.930;4.640;2022-10-18T15:26:40;10.48;;;1.83;;
59115;SDS011;53564;51.930;4.640;2022-10-18T15:29:14;8.43;;;1.80;;
59115;SDS011;53564;51.930;4.640;2022-10-18T15:31:41;9.00;;;2.10;;
59115;SDS011;53564;51.930;4.640;2022-10-18T15:34:09;8.18;;;1.90;;
59115;SDS011;53564;51.930;4.640;2022-10-18T15:36:35;10.55;;;1.98;;
59115;SDS011;53564;51.930;4.640;2022-10-18T15:44:31;8.50;;;1.85;;
59115;SDS011;53564;51.930;4.640;2022-10-18T15:58:01;10.80;;;2.30;;
59115;SDS011;53564;51.930;4.640;2022-10-18T16:00:30;11.40;;;2.40;;
59115;SDS011;53564;51.930;4.640;2022-10-18T16:02:56;12.50;;;2.22;;
59115;SDS011;53564;51.930;4.640;2022-10-18T16:05:21;8.75;;;2.40;;
59115;SDS011;53564;51.930;4.640;2022-10-18T16:07:50;7.68;;;2.20;;
59115;SDS011;53564;51.930;4.640;2022-10-18T16:10:16;8.90;;;2.35;;
59115;SDS011;53564;51.930;4.640;2022-10-18T16:12:41;7.20;;;1.90;;
59115;SDS011;53564;51.930;4.640;2022-10-18T16:15:07;9.20;;;2.03;;
59115;SDS011;53564;51.930;4.640;2022-10-18T16:17:32;9.68;;;2.40;;
59115;SDS011;53564;51.930;4.640;2022-10-18T16:19:58;12.65;;;2.40;;
59115;SDS011;53564;51.930;4.640;2022-10-18T16:22:23;12.25;;;2.72;;
59115;SDS011;53564;51.930;4.640;2022-10-18T16:24:49;10.27;;;2.40;;
59115;SDS011;53564;51.930;4.640;2022-10-18T16:27:14;10.07;;;2.33;;
59115;SDS011;53564;51.930;4.640;2022-10-18T16:29:40;11.77;;;2.50;;
59115;SDS011;53564;51.930;4.640;2022-10-18T16:32:05;7.65;;;2.10;;
59115;SDS011;53564;51.930;4.640;2022-10-18T16:34:30;14.23;;;2.53;;
59115;SDS011;53564;51.930;4.640;2022-10-18T16:36:56;13.50;;;3.53;;
59115;SDS011;53564;51.930;4.640;2022-10-18T16:39:21;11.68;;;3.17;;
59115;SDS011;53564;51.930;4.640;2022-10-18T16:41:47;13.57;;;3.58;;
59115;SDS011;53564;51.930;4.640;2022-10-18T16:44:13;14.82;;;5.20;;
59115;SDS011;53564;51.930;4.640;2022-10-18T16:46:39;12.10;;;4.18;;
59115;SDS011;53564;51.930;4.640;2022-10-18T16:49:05;17.95;;;5.38;;
59115;SDS011;53564;51.930;4.640;2022-10-18T16:51:31;15.85;;;4.35;;
59115;SDS011;53564;51.930;4.640;2022-10-18T16:53:56;17.73;;;4.95;;
59115;SDS011;53564;51.930;4.640;2022-10-18T16:56:26;13.88;;;4.40;;
59115;SDS011;53564;51.930;4.640;2022-10-18T16:58:54;16.65;;;4.68;;
59115;SDS011;53564;51.930;4.640;2022-10-18T17:01:20;12.32;;;4.07;;
59115;SDS011;53564;51.930;4.640;2022-10-18T17:03:47;12.70;;;3.75;;
59115;SDS011;53564;51.930;4.640;2022-10-18T17:06:16;13.02;;;3.53;;